Time,TemperatureF,DewpointF,PressureIn,WindDirection,WindDirectionDegrees,WindSpeedMPH,WindSpeedGustMPH,Humidity,HourlyPrecipIn,Conditions,Clouds,dailyrainin,SoftwareType,DateUTC
2013-08-02 00:01:00,100.0,42.0,29.71,NNW,342,9.0,19.0,14,0.00,,,0.00,,2013-08-02 00:01:00,
2013-08-02 00:32:00,99.0,41.0,29.70,WNW,287,9.0,19.0,14,0.00,,,0.00,,2013-08-02 00:32:00,
2013-08-02 01:01:00,98.0,42.0,29.70,NW,325,9.0,20.0,15,0.00,,,0.00,,2013-08-02 01:01:00,
2013-08-02 01:11:00,98.0,41.0,29.70,WSW,243,8.0,18.0,14,0.00,,,0.00,,2013-08-02 01:11:00,
2013-08-02 01:52:00,96.0,41.0,29.70,WNW,295,7.0,17.0,15,0.00,,,0.00,,2013-08-02 01:52:00,
2013-08-02 02:02:00,96.0,41.0,29.70,NE,46,8.0,19.0,15,0.00,,,0.00,,2013-08-02 02:02:00,
2013-08-02 02:11:00,95.0,40.0,29.70,WNW,297,7.0,17.0,15,0.00,,,0.00,,2013-08-02 02:11:00,
2013-08-02 02:33:00,94.0,41.0,29.70,NW,304,6.0,16.0,16,0.00,,,0.00,,2013-08-02 02:33:00,
2013-08-02 02:44:00,93.0,42.0,29.70,NNW,335,7.0,16.0,17,0.00,,,0.00,,2013-08-02 02:44:00,
2013-08-02 02:52:00,92.0,42.0,29.71,West,267,8.0,18.0,18,0.00,,,0.00,,2013-08-02 02:52:00,
2013-08-02 03:01:00,92.0,45.0,29.71,West,270,7.0,17.0,20,0.00,,,0.00,,2013-08-02 03:01:00,
2013-08-02 03:11:00,91.0,46.0,29.71,WNW,294,8.0,20.0,21,0.00,,,0.00,,2013-08-02 03:11:00,
2013-08-02 03:32:00,90.0,47.0,29.71,SW,222,7.0,17.0,23,0.00,,,0.00,,2013-08-02 03:32:00,
2013-08-02 03:42:00,89.0,47.0,29.71,WNW,296,7.0,17.0,24,0.00,,,0.00,,2013-08-02 03:42:00,
2013-08-02 03:52:00,89.0,47.0,29.71,WNW,301,8.0,21.0,24,0.00,,,0.00,,2013-08-02 03:52:00,
2013-08-02 04:01:00,88.0,49.0,29.72,NNW,330,10.0,19.0,26,0.00,,,0.00,,2013-08-02 04:01:00,
2013-08-02 04:11:00,87.0,49.0,29.72,WNW,301,8.0,19.0,27,0.00,,,0.00,,2013-08-02 04:11:00,
2013-08-02 04:22:00,87.0,49.0,29.72,NNE,15,6.0,19.0,27,0.00,,,0.00,,2013-08-02 04:22:00,
2013-08-02 04:43:00,85.0,48.0,29.73,WNW,283,7.0,16.0,28,0.00,,,0.00,,2013-08-02 04:43:00,
2013-08-02 04:53:00,85.0,49.0,29.73,NW,312,8.0,19.0,29,0.00,,,0.00,,2013-08-02 04:53:00,
2013-08-02 05:02:00,85.0,49.0,29.73,NNE,27,6.0,17.0,29,0.00,,,0.00,,2013-08-02 05:02:00,
2013-08-02 05:11:00,85.0,49.0,29.73,West,271,7.0,14.0,29,0.00,,,0.00,,2013-08-02 05:11:00,
2013-08-02 05:32:00,84.0,49.0,29.74,SSE,166,7.0,15.0,30,0.00,,,0.00,,2013-08-02 05:32:00,
2013-08-02 05:43:00,83.0,49.0,29.73,SW,231,5.0,15.0,31,0.00,,,0.00,,2013-08-02 05:43:00,
2013-08-02 05:52:00,83.0,49.0,29.74,NW,308,5.0,15.0,31,0.00,,,0.00,,2013-08-02 05:52:00,
2013-08-02 06:01:00,82.0,49.0,29.74,NW,319,7.0,17.0,32,0.00,,,0.00,,2013-08-02 06:01:00,
2013-08-02 06:11:00,82.0,49.0,29.74,WNW,294,8.0,19.0,32,0.00,,,0.00,,2013-08-02 06:11:00,
2013-08-02 06:33:00,82.0,48.0,29.73,WNW,294,7.0,15.0,31,0.00,,,0.00,,2013-08-02 06:33:00,
2013-08-02 06:43:00,82.0,49.0,29.73,WNW,300,7.0,14.0,32,0.00,,,0.00,,2013-08-02 06:43:00,
2013-08-02 06:52:00,82.0,49.0,29.74,NW,323,6.0,14.0,32,0.00,,,0.00,,2013-08-02 06:52:00,
2013-08-02 07:02:00,82.0,49.0,29.74,WSW,253,4.0,12.0,32,0.00,,,0.00,,2013-08-02 07:02:00,
2013-08-02 07:12:00,82.0,48.0,29.74,West,277,7.0,19.0,31,0.00,,,0.00,,2013-08-02 07:12:00,
2013-08-02 07:33:00,81.0,47.0,29.74,WNW,301,7.0,17.0,31,0.00,,,0.00,,2013-08-02 07:33:00,
2013-08-02 07:44:00,81.0,47.0,29.74,NNW,346,8.0,17.0,31,0.00,,,0.00,,2013-08-02 07:44:00,
2013-08-02 07:52:00,81.0,48.0,29.74,WNW,289,6.0,15.0,32,0.00,,,0.00,,2013-08-02 07:52:00,
2013-08-02 08:01:00,81.0,47.0,29.74,NW,305,8.0,15.0,31,0.00,,,0.00,,2013-08-02 08:01:00,
2013-08-02 08:12:00,81.0,47.0,29.74,WNW,293,4.0,17.0,30,0.00,,,0.00,,2013-08-02 08:12:00,
2013-08-02 08:22:00,81.0,47.0,29.74,WNW,301,6.0,14.0,31,0.00,,,0.00,,2013-08-02 08:22:00,
2013-08-02 08:33:00,81.0,47.0,29.74,ESE,118,5.0,13.0,31,0.00,,,0.00,,2013-08-02 08:33:00,
2013-08-02 08:43:00,80.0,48.0,29.74,WNW,303,8.0,15.0,33,0.00,,,0.00,,2013-08-02 08:43:00,
2013-08-02 08:53:00,80.0,48.0,29.74,WNW,296,7.0,15.0,33,0.00,,,0.00,,2013-08-02 08:53:00,
2013-08-02 09:01:00,79.0,48.0,29.74,WSW,257,6.0,15.0,34,0.00,,,0.00,,2013-08-02 09:01:00,
2013-08-02 09:12:00,79.0,48.0,29.74,WSW,257,6.0,15.0,34,0.00,,,0.00,,2013-08-02 09:12:00,
2013-08-02 09:33:00,79.0,49.0,29.74,WNW,302,6.0,18.0,35,0.00,,,0.00,,2013-08-02 09:33:00,
2013-08-02 09:43:00,79.0,50.0,29.73,NNE,19,7.0,16.0,36,0.00,,,0.00,,2013-08-02 09:43:00,
2013-08-02 09:52:00,79.0,50.0,29.73,WNW,283,7.0,17.0,36,0.00,,,0.00,,2013-08-02 09:52:00,
2013-08-02 10:02:00,79.0,49.0,29.73,NW,307,6.0,16.0,35,0.00,,,0.00,,2013-08-02 10:02:00,
2013-08-02 10:12:00,79.0,50.0,29.73,NW,316,7.0,14.0,36,0.00,,,0.00,,2013-08-02 10:12:00,
2013-08-02 10:23:00,79.0,50.0,29.73,NW,326,6.0,15.0,36,0.00,,,0.00,,2013-08-02 10:23:00,
2013-08-02 10:33:00,79.0,49.0,29.73,West,271,7.0,13.0,35,0.00,,,0.00,,2013-08-02 10:33:00,
2013-08-02 10:43:00,78.0,50.0,29.73,ENE,60,7.0,15.0,37,0.00,,,0.00,,2013-08-02 10:43:00,
2013-08-02 10:52:00,78.0,50.0,29.73,West,278,7.0,13.0,37,0.00,,,0.00,,2013-08-02 10:52:00,
2013-08-02 11:01:00,78.0,50.0,29.74,NNW,340,4.0,14.0,37,0.00,,,0.00,,2013-08-02 11:01:00,
2013-08-02 11:11:00,78.0,50.0,29.74,WNW,283,4.0,10.0,38,0.00,,,0.00,,2013-08-02 11:11:00,
2013-08-02 11:32:00,78.0,50.0,29.74,WNW,285,3.0,9.0,37,0.00,,,0.00,,2013-08-02 11:32:00,
2013-08-02 11:42:00,78.0,48.0,29.74,West,275,4.0,9.0,35,0.00,,,0.00,,2013-08-02 11:42:00,
2013-08-02 11:52:00,78.0,49.0,29.74,West,273,4.0,9.0,36,0.00,,,0.00,,2013-08-02 11:52:00,
2013-08-02 12:01:00,77.0,49.0,29.74,West,276,5.0,12.0,37,0.00,,,0.00,,2013-08-02 12:01:00,
2013-08-02 12:11:00,77.0,49.0,29.74,WNW,284,2.0,11.0,37,0.00,,,0.00,,2013-08-02 12:11:00,
2013-08-02 12:32:00,78.0,50.0,29.75,ENE,60,3.0,11.0,37,0.00,,,0.00,,2013-08-02 12:32:00,
2013-08-02 12:42:00,78.0,50.0,29.75,NE,34,4.0,11.0,37,0.00,,,0.00,,2013-08-02 12:42:00,
2013-08-02 12:52:00,78.0,49.0,29.75,NW,323,2.0,10.0,36,0.00,,,0.00,,2013-08-02 12:52:00,
2013-08-02 13:01:00,78.0,49.0,29.75,NNE,25,1.0,9.0,36,0.00,,,0.00,,2013-08-02 13:01:00,
2013-08-02 13:11:00,78.0,48.0,29.76,NW,312,1.0,4.0,35,0.00,,,0.00,,2013-08-02 13:11:00,
2013-08-02 13:22:00,78.0,49.0,29.76,NNW,348,2.0,6.0,36,0.00,,,0.00,,2013-08-02 13:22:00,
2013-08-02 13:42:00,78.0,50.0,29.76,WSW,246,3.0,11.0,37,0.00,,,0.00,,2013-08-02 13:42:00,
2013-08-02 13:52:00,78.0,50.0,29.76,NW,314,4.0,11.0,37,0.00,,,0.00,,2013-08-02 13:52:00,
2013-08-02 14:02:00,78.0,49.0,29.77,WNW,291,4.0,12.0,36,0.00,,,0.00,,2013-08-02 14:02:00,
2013-08-02 14:11:00,78.0,50.0,29.78,WSW,240,3.0,10.0,37,0.00,,,0.00,,2013-08-02 14:11:00,
2013-08-02 14:22:00,78.0,50.0,29.78,NW,307,6.0,13.0,37,0.00,,,0.00,,2013-08-02 14:22:00,
2013-08-02 14:43:00,79.0,50.0,29.78,NNE,14,4.0,9.0,36,0.00,,,0.00,,2013-08-02 14:43:00,
2013-08-02 14:52:00,80.0,50.0,29.78,WNW,293,2.0,8.0,35,0.00,,,0.00,,2013-08-02 14:52:00,
2013-08-02 15:03:00,82.0,50.0,29.79,West,275,2.0,8.0,33,0.00,,,0.00,,2013-08-02 15:03:00,
2013-08-02 15:11:00,82.0,49.0,29.79,NW,326,3.0,8.0,32,0.00,,,0.00,,2013-08-02 15:11:00,
2013-08-02 15:32:00,84.0,50.0,29.80,NW,312,2.0,10.0,31,0.00,,,0.00,,2013-08-02 15:32:00,
2013-08-02 15:52:00,87.0,49.0,29.81,West,270,2.0,6.0,27,0.00,,,0.00,,2013-08-02 15:52:00,
2013-08-02 16:01:00,88.0,50.0,29.81,WNW,288,2.0,6.0,27,0.00,,,0.00,,2013-08-02 16:01:00,
2013-08-02 16:11:00,88.0,49.0,29.81,West,277,2.0,6.0,26,0.00,,,0.00,,2013-08-02 16:11:00,
2013-08-02 16:32:00,89.0,47.0,29.81,WNW,294,2.0,6.0,24,0.00,,,0.00,,2013-08-02 16:32:00,
2013-08-02 16:42:00,91.0,46.0,29.80,WNW,285,4.0,10.0,21,0.00,,,0.00,,2013-08-02 16:42:00,
2013-08-02 16:52:00,92.0,45.0,29.80,NW,319,2.0,8.0,20,0.00,,,0.00,,2013-08-02 16:52:00,
2013-08-02 17:01:00,92.0,42.0,29.80,WNW,290,2.0,7.0,18,0.00,,,0.00,,2013-08-02 17:01:00,
2013-08-02 17:11:00,93.0,42.0,29.80,WNW,298,3.0,8.0,17,0.00,,,0.00,,2013-08-02 17:11:00,
2013-08-02 17:42:00,96.0,43.0,29.80,SW,228,1.0,4.0,16,0.00,,,0.00,,2013-08-02 17:42:00,
2013-08-02 17:52:00,96.0,44.0,29.80,SW,218,1.0,4.0,17,0.00,,,0.00,,2013-08-02 17:52:00,
2013-08-02 18:01:00,96.0,43.0,29.80,SW,226,1.0,3.0,16,0.00,,,0.00,,2013-08-02 18:01:00,
2013-08-02 18:32:00,100.0,40.0,29.80,SW,214,2.0,3.0,13,0.00,,,0.00,,2013-08-02 18:32:00,
2013-08-02 18:52:00,101.0,37.0,29.79,WNW,291,1.0,3.0,11,0.00,,,0.00,,2013-08-02 18:52:00,
2013-08-02 19:32:00,103.0,36.0,29.78,NNW,330,1.0,3.0,10,0.00,,,0.00,,2013-08-02 19:32:00,
2013-08-02 19:43:00,103.0,36.0,29.78,West,263,1.0,3.0,10,0.00,,,0.00,,2013-08-02 19:43:00,
2013-08-02 19:52:00,104.0,37.0,29.78,West,271,1.0,5.0,10,0.00,,,0.00,,2013-08-02 19:52:00,
2013-08-02 20:02:00,104.0,37.0,29.78,SSW,207,1.0,4.0,10,0.00,,,0.00,,2013-08-02 20:02:00,
2013-08-02 20:11:00,104.0,37.0,29.78,WNW,285,1.0,4.0,10,0.00,,,0.00,,2013-08-02 20:11:00,
2013-08-02 20:32:00,105.0,37.0,29.78,WSW,242,3.0,8.0,10,0.00,,,0.00,,2013-08-02 20:32:00,
2013-08-02 20:43:00,105.0,37.0,29.77,ESE,111,1.0,7.0,10,0.00,,,0.00,,2013-08-02 20:43:00,
2013-08-02 20:52:00,104.0,34.0,29.77,South,172,1.0,4.0,9,0.00,,,0.00,,2013-08-02 20:52:00,
2013-08-02 21:01:00,104.0,37.0,29.77,East,96,1.0,5.0,10,0.00,,,0.00,,2013-08-02 21:01:00,
2013-08-02 21:32:00,103.0,36.0,29.75,North,354,1.0,4.0,10,0.00,,,0.00,,2013-08-02 21:32:00,
2013-08-02 21:42:00,104.0,37.0,29.75,SSW,194,1.0,4.0,10,0.00,,,0.00,,2013-08-02 21:42:00,
2013-08-02 21:52:00,104.0,37.0,29.75,SE,131,1.0,6.0,10,0.00,,,0.00,,2013-08-02 21:52:00,
2013-08-02 22:01:00,104.0,41.0,29.74,East,84,1.0,5.0,12,0.00,,,0.00,,2013-08-02 22:01:00,
2013-08-02 22:32:00,104.0,43.0,29.73,NNW,342,3.0,11.0,13,0.00,,,0.00,,2013-08-02 22:32:00,
2013-08-02 22:52:00,104.0,41.0,29.72,West,268,4.0,9.0,12,0.00,,,0.00,,2013-08-02 22:52:00,
2013-08-02 23:43:00,103.0,38.0,29.71,NW,311,6.0,17.0,11,0.00,,,0.00,,2013-08-02 23:43:00,
2013-08-02 23:52:00,103.0,38.0,29.70,WNW,295,6.0,14.0,11,0.00,,,0.00,,2013-08-02 23:52:00,